UBC Old Black Spruce (OBS) Site

Current climate data:

Measured at 12:30:00, 2017-08-17 (Local time)

 Air temperature        =  20.59 C 
 Relative humidity      =  51.40 % 
 Wind speed             =   3.36 m/s
 Wind direction         = 301.96  
 Barometric pressure    =  94.12 kPa 
 Precipitation (last 30 min) =   0.00 mm 
 Precipitation (24h totals ending at  4:00 AM today)  =   0.62 mm 
 Precipitation (24h totals ending at 12:30 PM today)  =   3.34 mm 
 Cumulative Precipitation (2017) =  324 mm 

Current Picture (Time stamp:UTC)  (Full size image)

Fire index data:

Year  Month  Day  Hour  Tair(C) RH(%) Wind(m/s) W_Dir(deg)  Rain(mm)   ffmc     dmc      dc     bui     isi     fwi     dsr     Rating
2017      7   17   13   17.94   42.56    6.32    287.28      0.11     82.22   12.70   55.17   16.12    4.61    6.52    0.75       2  
2017      7   18   13   14.02   56.07    3.47    305.04      1.56     76.56   13.58   61.40   17.49    1.58    2.00    0.09       2  
2017      7   20   13   22.19   40.87    2.28     21.17      0.07     86.60   16.82   69.10   20.91    3.99    6.62    0.77       2  
2017      7   21   13   17.65   66.42    1.60    186.66      0.00     85.97   18.29   75.98   22.84    3.23    5.71    0.59       2  
2017      7   22   13   20.49   36.27    3.04    226.12     15.51     65.47   11.26   56.67   15.05    0.93    0.71    0.01       2  
2017      7   23   13   24.95   44.51    2.71    234.56      0.00     84.56   14.66   64.87   18.73    3.24    5.07    0.48       2  
2017      7   24   13   21.01   70.78    5.23    289.17      6.94     61.73    9.45   62.09   13.69    1.17    0.84    0.02       2  
2017      7   25   13   18.60   76.72    6.79    357.11      3.16     62.08    7.41   66.04   11.57    1.58    1.19    0.04       2  
2017      7   26   13   22.03   54.92    3.00    245.80     38.39     55.12    5.28    8.32    5.07    0.49    0.21    0.00       1  
2017      7   27   13   27.66   32.22    2.41    208.50      0.03     86.14    9.86   17.00    9.68    3.82    4.02    0.32       2  
2017      7   28   13   24.91   48.04    0.00      0.00      0.00     87.67   13.03   25.19   12.91    3.07    3.77    0.28       2  
2017      7   29   13   22.72   40.39    4.50    292.83      0.00     89.28   16.37   32.98   16.26    8.75   11.42    2.03       2  
2017      7   30   13   26.59   34.18    2.70    174.36      0.00     91.13   20.65   41.47   20.54    8.22   12.21    2.28       3  
2017      7   31   13   22.11   37.49    5.62    308.53      5.90     76.91   15.56   41.30   16.03    2.40    3.27    0.22       2  
2017      8    1   13   19.33   56.68    3.01     22.80      0.10     83.58   17.39   47.79   18.21    3.01    4.60    0.41       2  
2017      8    2   13   19.39   35.68    2.50     17.47      0.05     88.48   20.11   54.28   20.88    5.42    8.72    1.26       3  
2017      8    3   13   21.35   38.21    2.65    306.04      0.04     89.50   22.97   61.13   23.69    6.45   10.81    1.84       3  
2017      8    4   13   22.23   37.07    0.00    285.00      0.00     89.91   26.00   68.13   26.61    4.23    8.05    1.09       3  
2017      8    5   13   22.06   38.61    1.36    331.30      0.17     89.96   28.94   75.11   29.48    5.46   10.60    1.78       3  
2017      8    6   13   23.50   39.07    3.90    256.91      0.04     90.01   32.03   82.34   32.48    8.71   16.14    3.74       3  
2017      8    7   13   16.91   70.46    2.66     50.52      0.08     86.05   33.13   88.39   34.21    3.96    8.80    1.28       3  
2017      8    8   13   19.39   43.32    1.68     87.90      0.00     87.84   35.53   94.88   36.70    4.27    9.78    1.54       3  
2017      8    9   13   21.75   31.34    1.94     27.49      0.08     90.50   38.77  101.80   39.72    6.55   14.43    3.07       3  
2017      8   10   13   22.36   36.51    2.50    242.85      0.00     90.55   41.84  108.83   42.67    7.30   16.27    3.79       3  
2017      8   11   13   19.98   49.05    1.08    257.19      2.25     76.21   38.60  115.43   42.05    1.00    2.40    0.13       2  
2017      8   12   13   24.91   33.76    1.84    277.40      1.10     85.94   42.16  122.92   45.39    3.36    9.04    1.34       3  
2017      8   13   13   24.89   37.18    2.82    182.47      0.00     89.82   45.53  130.41   48.62    6.97   16.85    4.03       4* 
2017      8   14   13   24.03   42.14    4.60    174.99      0.00     89.87   48.53  137.73   51.60    9.69   22.10    6.52       4* 
2017      8   15   13   20.77   58.20    4.54    178.98      0.00     88.06   50.42  144.48   53.85    7.38   18.56    4.79       4* 
2017      8   16   13   17.99   64.03    5.93    294.69      0.00     86.54   51.83  150.72   55.74    7.67   19.43    5.19       4* 

(c) 2017 Biomet Group, University of British Columbia, Canada